Thursday, May 24, 2018, 12:31 AM EDT
Back to Local

KLEB, Lebanon Municipal Airport

Location: Lebanon, NH, United States Lat: 43.633
Local Time: 12:31 AM EDT ( 4:31 GMT) Lon: -72.3
Time Zone: US/Eastern Elev: 597 ft

Show me the last for .
Show Decoded

2018-05-23 23:53 METAR KLEB 240353Z AUTO 00000KT 10SM CLR 11/07 A2999 RMK AO2 SLP149 T01060072 =
2018-05-23 22:53 METAR KLEB 240253Z AUTO 00000KT 10SM CLR 12/08 A2997 RMK AO2 SLP145 T01170078
                 51018 =
2018-05-23 21:53 METAR KLEB 240153Z 00000KT 10SM CLR 14/09 A2997 RMK AO2 SLP143 T01390089 =
2018-05-23 20:53 METAR KLEB 240053Z 01004KT 10SM CLR 18/08 A2995 RMK AO2 SLP136 T01830083 =
2018-05-23 19:53 METAR KLEB 232353Z 36006KT 10SM SCT080 22/08 A2992 RMK AO2 SLP125 T02220078
                 10283 20222 53024 =
2018-05-23 18:53 METAR KLEB 232253Z 35007G16KT 10SM CLR 24/09 A2990 RMK AO2 SLP118 T02390089 =
2018-05-23 17:53 METAR KLEB 232153Z 01012KT 10SM CLR 25/09 A2987 RMK AO2 SLP108 T02500089 =
2018-05-23 16:53 METAR KLEB 232053Z 34008KT 10SM FEW075 SCT100 26/09 A2985 RMK AO2 SLP100
                 T02610089 53001 =
2018-05-23 15:53 METAR KLEB 231953Z 32008G17KT 10SM SCT100 SCT110 27/09 A2984 RMK AO2 SLP096
                 T02670089 =
2018-05-23 14:53 METAR KLEB 231853Z 30010G22KT 270V330 10SM BKN075 OVC095 27/09 A2984 RMK AO2
                 SLP098 T02670089 =
2018-05-23 13:53 METAR KLEB 231753Z 32011G20KT 10SM CLR 28/08 A2985 RMK AO2 SLP099 T02780083
                 10278 20150 58016 =
2018-05-23 12:53 METAR KLEB 231653Z 29008KT 10SM CLR 26/11 A2987 RMK AO2 SLP105 T02560111 =
2018-05-23 11:53 METAR KLEB 231553Z 30004KT 10SM CLR 23/12 A2989 RMK AO2 SLP113 T02330117 =
2018-05-23 10:53 METAR KLEB 231453Z 34003KT 10SM CLR 22/12 A2990 RMK AO2 SLP117 T02170122 58007 =
2018-05-23 09:53 METAR KLEB 231353Z VRB03KT 10SM SCT006 19/12 A2991 RMK AO2 SLP122 T01890122 =
2018-05-23 09:00 METAR KLEB 231300Z VRB03KT 10SM SCT006 17/12 A2992 RMK AO2 T01670122 =
2018-05-23 08:53 METAR KLEB 231253Z 00000KT 10SM SCT001 BKN006 16/12 A2992 RMK AO2 SLP126
                 T01610122 =
2018-05-23 07:57 METAR KLEB 231157Z 00000KT 10SM SCT001 BKN006 15/12 A2991 RMK AO2 T01500117 =
2018-05-23 07:53 METAR KLEB 231153Z 36003KT 10SM SCT001 15/12 A2991 RMK AO2 SLP126 60009 70029
                 T01500117 10150 20122 53015 =
2018-05-23 06:53 METAR KLEB 231053Z 00000KT 7SM OVC001 13/11 A2990 RMK AO2 SLP120 T01280106 =
2018-05-23 06:25 METAR KLEB 231025Z 00000KT 7SM BKN001 BKN031 13/11 A2989 RMK AO2 T01280111 =
2018-05-23 06:16 METAR KLEB 231016Z 00000KT 5SM BR SCT001 BKN030 12/10 A2988 RMK AO2 T01220100 =
2018-05-23 06:02 METAR KLEB 231002Z 00000KT 9SM BKN030 13/11 A2988 RMK AO2 T01280106 =
2018-05-23 05:53 METAR KLEB 230953Z AUTO 00000KT 7SM OVC029 12/11 A2987 RMK AO2 SLP112 T01220106
                 =
2018-05-23 05:43 METAR KLEB 230943Z AUTO 00000KT 7SM SCT005 OVC029 12/11 A2987 RMK AO2 T01220106
                 =
2018-05-23 05:33 METAR KLEB 230933Z AUTO 00000KT 9SM BKN006 BKN023 OVC029 12/11 A2987 RMK AO2 CIG
                 003V008 T01220106 =
2018-05-23 05:15 METAR KLEB 230915Z AUTO 00000KT 10SM BKN003 OVC008 13/11 A2987 RMK AO2 CIG
                 001V004 T01280106 =
2018-05-23 04:53 METAR KLEB 230853Z AUTO 36003KT 7SM BKN001 OVC008 13/11 A2987 RMK AO2 RAE08
                 SLP112 P0000 60009 T01280106 53003 =
2018-05-23 03:53 METAR KLEB 230753Z AUTO 00000KT 6SM -RA BR FEW004 OVC009 12/11 A2985 RMK AO2
                 SLP105 P0008 T01220106 =
2018-05-23 03:28 METAR KLEB 230728Z AUTO 16003KT 4SM -RA BR OVC009 12/11 A2985 RMK AO2 P0005
                 T01220106 =
2018-05-23 02:53 METAR KLEB 230653Z AUTO 00000KT 6SM -RA BR OVC014 13/11 A2986 RMK AO2 RAB36
                 SLP106 P0001 T01280106 =
2018-05-23 02:32 METAR KLEB 230632Z AUTO 00000KT 10SM OVC014 13/11 A2986 RMK AO2 T01280106 =
2018-05-23 01:53 METAR KLEB 230553Z AUTO 00000KT 10SM OVC017 12/11 A2986 RMK AO2 RAB0456E06
                 SLP108 P0000 60007 T01220106 10150 20122 58014 =
2018-05-23 00:53 METAR KLEB 230453Z AUTO 00000KT 10SM OVC019 13/10 A2988 RMK AO2 RAE39 SLP113
                 P0004 T01280100 402000089 =

Support USWX by starting your Amazon purchase here.